createdAt,value
2023-01-11T00:01:45.058Z,-1.60
2023-01-11T00:04:19.059Z,-1.20
2023-01-11T00:07:28.863Z,-0.70
2023-01-11T00:10:02.818Z,-0.20
2023-01-11T00:13:09.323Z,0.20
2023-01-11T00:15:46.910Z,0.50
2023-01-11T00:18:14.312Z,0.70
2023-01-11T00:20:46.970Z,0.70
2023-01-11T00:23:19.037Z,0.50
2023-01-11T00:26:06.878Z,0.40
2023-01-11T00:28:37.231Z,0.60
2023-01-11T00:31:05.053Z,0.60
2023-01-11T00:33:32.212Z,0.20
2023-01-11T00:36:10.414Z,-0.10
2023-01-11T00:38:43.987Z,-0.20
2023-01-11T00:41:31.335Z,-0.10
2023-01-11T00:44:17.084Z,0.00
2023-01-11T00:47:02.933Z,0.30
2023-01-11T00:49:38.572Z,0.60
2023-01-11T00:52:25.827Z,0.70
2023-01-11T00:54:53.680Z,0.80
2023-01-11T00:57:21.169Z,0.70
2023-01-11T00:59:52.941Z,0.70
2023-01-11T01:02:28.378Z,0.70
2023-01-11T01:05:11.798Z,0.80
2023-01-11T01:07:41.193Z,0.80
2023-01-11T01:10:21.916Z,1.10
2023-01-11T01:13:07.968Z,1.20
2023-01-11T01:15:35.595Z,1.30
2023-01-11T01:18:03.239Z,1.20
2023-01-11T01:20:38.224Z,1.10
2023-01-11T01:23:07.619Z,0.90
2023-01-11T01:25:44.116Z,0.70
2023-01-11T01:28:11.639Z,0.60
2023-01-11T01:30:41.940Z,0.30
2023-01-11T01:33:20.034Z,0.30
2023-01-11T01:35:47.599Z,0.40
2023-01-11T01:38:15.320Z,0.60
2023-01-11T01:40:47.294Z,0.70
2023-01-11T01:43:17.926Z,0.80
2023-01-11T01:45:45.959Z,1.10
2023-01-11T01:48:16.725Z,1.40
2023-01-11T01:50:55.671Z,1.80
2023-01-11T01:53:38.788Z,1.90
2023-01-11T01:56:09.884Z,1.90
2023-01-11T01:58:42.091Z,1.60
2023-01-11T02:01:28.670Z,1.50
2023-01-11T02:03:59.396Z,1.30
2023-01-11T02:06:27.052Z,1.00
2023-01-11T02:09:39.108Z,0.90
2023-01-11T02:12:33.558Z,0.90
2023-01-11T02:15:17.363Z,1.10
2023-01-11T02:18:29.929Z,1.20
2023-01-11T02:21:26.323Z,0.90
2023-01-11T02:24:50.407Z,0.60
2023-01-11T02:27:41.829Z,0.40
2023-01-11T02:30:25.012Z,0.60
2023-01-11T02:32:57.928Z,0.70
2023-01-11T02:35:34.828Z,1.00
2023-01-11T02:38:18.892Z,1.00
2023-01-11T02:40:49.664Z,1.00
2023-01-11T02:43:41.919Z,0.80
2023-01-11T02:46:12.170Z,0.60
2023-01-11T02:48:49.116Z,0.30
2023-01-11T02:51:29.605Z,0.50
2023-01-11T02:53:59.719Z,0.30
2023-01-11T02:56:28.501Z,0.20
2023-01-11T02:58:58.215Z,0.10
2023-01-11T03:01:26.072Z,0.00
2023-01-11T03:03:54.009Z,-0.10
2023-01-11T03:06:22.828Z,-0.30
2023-01-11T03:08:56.279Z,-0.50
2023-01-11T03:11:42.133Z,-0.50
2023-01-11T03:14:21.240Z,-0.10
2023-01-11T03:16:48.587Z,0.30
2023-01-11T03:19:18.971Z,0.80
2023-01-11T03:22:01.701Z,1.10
2023-01-11T03:24:41.321Z,1.10
2023-01-11T03:27:12.614Z,0.90
2023-01-11T03:29:48.547Z,1.00
2023-01-11T03:32:19.101Z,1.00
2023-01-11T03:34:49.548Z,1.20
2023-01-11T03:37:23.267Z,1.40
2023-01-11T03:40:03.440Z,1.50
2023-01-11T03:42:32.831Z,1.60
2023-01-11T03:45:02.664Z,1.70
2023-01-11T03:47:30.708Z,1.80
2023-01-11T03:50:06.721Z,1.90
2023-01-11T03:52:36.408Z,1.80
2023-01-11T03:55:06.331Z,1.50
2023-01-11T03:57:36.020Z,1.20
2023-01-11T04:00:06.641Z,0.80
2023-01-11T04:02:35.136Z,0.60
2023-01-11T04:05:04.167Z,0.60
2023-01-11T04:07:31.504Z,0.70
2023-01-11T04:10:01.699Z,0.60
2023-01-11T04:12:32.009Z,0.70
2023-01-11T04:15:03.382Z,0.90
2023-01-11T04:17:31.494Z,1.20
2023-01-11T04:19:58.999Z,1.20
2023-01-11T04:22:26.448Z,1.30
2023-01-11T04:24:59.368Z,1.20
2023-01-11T04:27:26.703Z,1.10
2023-01-11T04:29:56.921Z,1.10
2023-01-11T04:32:24.417Z,1.20
2023-01-11T04:34:52.034Z,1.30
2023-01-11T04:37:19.610Z,1.50
2023-01-11T04:39:47.176Z,1.50
2023-01-11T04:42:25.322Z,1.50
2023-01-11T04:44:53.199Z,1.40
2023-01-11T04:47:28.182Z,1.50
2023-01-11T04:50:02.055Z,1.50
2023-01-11T04:52:29.674Z,1.60
2023-01-11T04:54:57.087Z,1.50
2023-01-11T04:57:25.771Z,1.40
2023-01-11T04:59:53.576Z,1.40
2023-01-11T05:02:23.895Z,1.70
2023-01-11T05:04:55.623Z,2.10
2023-01-11T05:17:16.392Z,2.80
2023-01-11T05:19:52.974Z,2.80
2023-01-11T05:22:35.529Z,2.60
2023-01-11T05:28:23.339Z,2.30
2023-01-11T05:31:28.019Z,2.10
2023-01-11T05:33:54.506Z,1.90
2023-01-11T05:36:32.154Z,1.40
2023-01-11T05:39:19.887Z,1.20
2023-01-11T05:42:00.781Z,1.00
2023-01-11T05:45:02.974Z,1.00
2023-01-11T05:54:14.238Z,2.00
2023-01-11T05:56:49.768Z,2.20
2023-01-11T06:00:38.867Z,2.30
2023-01-11T06:03:06.184Z,2.30
2023-01-11T06:05:45.934Z,2.50
2023-01-11T06:08:44.298Z,2.60
2023-01-11T06:17:20.958Z,3.30
2023-01-11T06:20:08.523Z,3.50
2023-01-11T06:25:43.088Z,3.40
2023-01-11T06:28:43.193Z,3.50
2023-01-11T06:31:23.879Z,3.50
2023-01-11T06:34:01.700Z,3.50
2023-01-11T06:36:49.870Z,3.40
2023-01-11T06:39:30.661Z,3.40
2023-01-11T06:42:14.875Z,3.10
2023-01-11T06:45:06.417Z,3.00
2023-01-11T06:47:41.296Z,2.70
2023-01-11T06:51:14.080Z,2.70
2023-01-11T06:59:41.036Z,2.40
2023-01-11T07:02:09.656Z,2.30
2023-01-11T07:04:57.777Z,2.20
2023-01-11T07:13:40.466Z,2.10
2023-01-11T07:16:07.610Z,2.00
2023-01-11T07:18:34.600Z,1.90
2023-01-11T07:21:02.566Z,2.00
2023-01-11T07:23:29.532Z,2.10
2023-01-11T07:25:56.520Z,2.00
2023-01-11T07:28:23.570Z,2.00
2023-01-11T07:30:58.724Z,1.90
2023-01-11T07:33:26.473Z,1.70
2023-01-11T07:35:53.760Z,1.70
2023-01-11T07:38:20.780Z,1.70
2023-01-11T07:40:47.673Z,1.70
2023-01-11T07:43:15.459Z,1.50
2023-01-11T07:45:46.497Z,1.50
2023-01-11T07:48:15.195Z,1.60
2023-01-11T07:50:44.498Z,1.70
2023-01-11T07:53:12.736Z,1.70
2023-01-11T07:55:40.160Z,1.50
2023-01-11T07:58:08.565Z,1.30
2023-01-11T08:00:35.522Z,1.00
2023-01-11T08:03:03.137Z,0.70
2023-01-11T08:05:30.327Z,0.40
2023-01-11T08:07:57.350Z,0.20
2023-01-11T08:10:24.339Z,0.10
2023-01-11T08:13:10.289Z,0.10
2023-01-11T08:15:37.330Z,0.40
2023-01-11T08:18:05.945Z,0.80
2023-01-11T08:20:33.164Z,0.90
2023-01-11T08:23:07.536Z,1.10
2023-01-11T08:25:34.453Z,1.30
2023-01-11T08:28:02.204Z,1.90
2023-01-11T08:30:29.772Z,2.20
2023-01-11T08:32:57.813Z,2.60
2023-01-11T08:35:25.377Z,2.90
2023-01-11T08:37:53.123Z,3.10
2023-01-11T08:40:21.643Z,3.40
2023-01-11T08:42:49.951Z,3.50
2023-01-11T08:45:16.845Z,3.80
2023-01-11T08:47:43.737Z,3.90
2023-01-11T08:50:11.038Z,4.10
2023-01-11T08:52:38.023Z,4.30
2023-01-11T08:55:08.274Z,4.50
2023-01-11T08:57:38.988Z,4.50
2023-01-11T09:00:07.481Z,4.60
2023-01-11T09:02:34.428Z,4.70
2023-01-11T09:05:01.669Z,4.80
2023-01-11T09:07:28.930Z,5.00
2023-01-11T09:09:55.985Z,5.20
2023-01-11T09:12:24.317Z,5.20
2023-01-11T09:14:51.301Z,5.30
2023-01-11T09:17:18.214Z,5.40
2023-01-11T09:19:45.184Z,5.40
2023-01-11T09:22:12.107Z,5.30
2023-01-11T09:24:39.095Z,5.30
2023-01-11T09:27:08.245Z,5.40
2023-01-11T09:29:37.289Z,5.50
2023-01-11T09:32:04.889Z,5.70
2023-01-11T09:34:32.072Z,5.80
2023-01-11T09:37:02.770Z,5.50
2023-01-11T09:39:30.042Z,5.50
2023-01-11T09:42:04.249Z,5.40
2023-01-11T09:44:33.001Z,5.50
2023-01-11T09:47:08.686Z,5.90
2023-01-11T09:49:40.778Z,6.10
2023-01-11T09:52:29.366Z,5.80
2023-01-11T09:55:00.428Z,5.90
2023-01-11T09:57:33.539Z,6.00
2023-01-11T10:00:12.192Z,6.10
2023-01-11T10:02:52.465Z,6.00
2023-01-11T10:05:36.097Z,6.10
2023-01-11T10:14:01.553Z,5.40
2023-01-11T10:18:39.289Z,5.60
2023-01-11T10:19:50.554Z,5.70
2023-01-11T10:22:23.935Z,6.00
2023-01-11T10:25:17.166Z,5.70
2023-01-11T10:27:57.876Z,5.80
2023-01-11T10:30:41.780Z,5.90
2023-01-11T10:33:36.116Z,5.90
2023-01-11T10:36:13.802Z,5.90
2023-01-11T10:39:17.814Z,5.80
2023-01-11T10:41:57.419Z,5.90
2023-01-11T10:44:32.839Z,6.00
2023-01-11T10:47:02.296Z,6.30
2023-01-11T10:49:36.651Z,6.30
2023-01-11T10:52:18.407Z,6.30
2023-01-11T10:54:53.390Z,6.40
2023-01-11T10:57:23.392Z,6.40
2023-01-11T11:00:02.705Z,6.40
2023-01-11T11:02:48.413Z,6.70
2023-01-11T11:05:15.488Z,7.00
2023-01-11T11:07:57.979Z,7.40
2023-01-11T11:10:31.987Z,7.60
2023-01-11T11:12:58.945Z,7.90
2023-01-11T11:15:39.121Z,7.90
2023-01-11T11:18:06.343Z,8.00
2023-01-11T11:20:34.164Z,8.10
2023-01-11T11:23:01.239Z,8.20
2023-01-11T11:25:38.347Z,8.10
2023-01-11T11:28:14.713Z,8.20
2023-01-11T11:30:43.260Z,8.20
2023-01-11T11:33:16.327Z,8.20
2023-01-11T11:35:47.944Z,8.20
2023-01-11T11:38:25.687Z,7.90
2023-01-11T11:41:08.267Z,7.90
2023-01-11T11:43:36.486Z,8.00
2023-01-11T11:46:05.051Z,8.10
2023-01-11T11:48:35.608Z,8.00
2023-01-11T11:51:04.263Z,8.10
2023-01-11T11:53:43.252Z,8.20
2023-01-11T11:56:18.197Z,8.10
2023-01-11T11:58:45.742Z,8.10
2023-01-11T12:01:29.972Z,8.10
2023-01-11T12:03:58.820Z,8.10
2023-01-11T12:06:27.735Z,8.10
2023-01-11T12:08:55.343Z,8.10
2023-01-11T12:11:30.058Z,8.10
2023-01-11T12:14:02.560Z,8.20
2023-01-11T12:16:39.348Z,8.10
2023-01-11T12:19:25.177Z,8.10
2023-01-11T12:21:52.439Z,8.10
2023-01-11T12:24:20.813Z,8.10
2023-01-11T12:27:06.689Z,8.10
2023-01-11T12:29:41.123Z,8.10
2023-01-11T12:32:24.416Z,8.10
2023-01-11T12:35:26.864Z,8.10
2023-01-11T12:37:53.836Z,8.00
2023-01-11T12:40:40.897Z,8.00
2023-01-11T12:43:17.098Z,7.90
2023-01-11T12:46:02.797Z,7.80
2023-01-11T12:48:29.936Z,7.80
2023-01-11T12:51:12.158Z,7.80
2023-01-11T12:53:39.073Z,7.70
2023-01-11T12:56:09.055Z,7.80
2023-01-11T12:58:45.209Z,7.90
2023-01-11T13:01:44.725Z,7.90
2023-01-11T13:04:12.315Z,7.90
2023-01-11T13:06:39.476Z,7.80
2023-01-11T13:09:12.667Z,7.80
2023-01-11T13:11:58.243Z,7.70
2023-01-11T13:14:25.162Z,7.80
2023-01-11T13:17:10.173Z,7.80
2023-01-11T13:19:55.962Z,7.60
2023-01-11T13:22:24.763Z,7.50
2023-01-11T13:24:51.799Z,7.40
2023-01-11T13:27:22.514Z,7.30
2023-01-11T13:29:54.617Z,7.40
2023-01-11T13:32:23.637Z,7.40
2023-01-11T13:34:53.300Z,7.50
2023-01-11T13:37:23.431Z,7.50
2023-01-11T13:40:09.500Z,7.50
2023-01-11T13:42:45.471Z,7.50
2023-01-11T13:45:30.720Z,7.40
2023-01-11T13:48:00.661Z,7.40
2023-01-11T13:50:32.182Z,7.30
2023-01-11T13:53:09.910Z,7.20
2023-01-11T13:55:39.965Z,7.30
2023-01-11T13:58:29.272Z,7.20
2023-01-11T14:01:26.066Z,7.30
2023-01-11T14:03:59.915Z,7.30
2023-01-11T14:06:33.238Z,7.30
2023-01-11T14:09:11.645Z,7.30
2023-01-11T14:11:58.658Z,7.40
2023-01-11T14:14:28.564Z,7.40
2023-01-11T14:16:58.639Z,7.40
2023-01-11T14:19:30.523Z,7.30
2023-01-11T14:21:57.435Z,7.40
2023-01-11T14:24:25.155Z,7.30
2023-01-11T14:27:21.955Z,7.30
2023-01-11T14:30:27.469Z,7.20
2023-01-11T14:33:03.476Z,7.20
2023-01-11T14:35:42.842Z,7.10
2023-01-11T14:38:45.451Z,7.00
2023-01-11T14:41:15.185Z,6.90
2023-01-11T14:43:42.144Z,6.80
2023-01-11T14:46:12.132Z,6.80
2023-01-11T14:48:57.970Z,6.80
2023-01-11T14:51:34.359Z,6.90
2023-01-11T14:54:01.303Z,6.70
2023-01-11T14:56:37.408Z,6.60
2023-01-11T14:59:05.854Z,6.60
2023-01-11T15:02:07.298Z,6.60
2023-01-11T15:04:52.809Z,6.60
2023-01-11T15:07:29.048Z,6.50
2023-01-11T15:09:57.154Z,6.50
2023-01-11T15:12:42.636Z,6.50
2023-01-11T15:15:12.652Z,6.50
2023-01-11T15:17:59.327Z,6.50
2023-01-11T15:20:26.847Z,6.40
2023-01-11T15:22:58.410Z,6.40
2023-01-11T15:25:25.442Z,6.50
2023-01-11T15:27:52.859Z,6.40
2023-01-11T15:30:46.200Z,6.30
2023-01-11T15:33:19.508Z,6.20
2023-01-11T15:35:55.716Z,6.20
2023-01-11T15:38:34.884Z,6.20
2023-01-11T15:41:23.417Z,6.30
2023-01-11T15:44:16.379Z,6.20
2023-01-11T15:46:55.596Z,6.20
2023-01-11T15:49:41.457Z,6.30
2023-01-11T15:52:20.821Z,6.30
2023-01-11T15:54:53.960Z,6.30
2023-01-11T15:57:40.113Z,6.30
2023-01-11T16:00:21.460Z,6.30
2023-01-11T16:02:48.343Z,6.30
2023-01-11T16:05:28.907Z,6.30
2023-01-11T16:07:58.775Z,6.40
2023-01-11T16:10:29.387Z,6.50
2023-01-11T16:12:59.785Z,6.40
2023-01-11T16:15:39.164Z,6.40
2023-01-11T16:18:20.249Z,6.20
2023-01-11T16:20:56.591Z,6.20
2023-01-11T16:23:24.101Z,6.20
2023-01-11T16:25:54.499Z,6.30
2023-01-11T16:28:21.991Z,6.30
2023-01-11T16:31:01.809Z,6.30
2023-01-11T16:33:30.244Z,6.30
2023-01-11T16:36:14.406Z,6.40
2023-01-11T16:38:47.629Z,6.40
2023-01-11T16:41:15.587Z,6.40
2023-01-11T16:43:48.082Z,6.40
2023-01-11T16:46:50.417Z,6.40
2023-01-11T16:49:18.259Z,6.40
2023-01-11T16:51:46.333Z,6.40
2023-01-11T16:54:17.190Z,6.30
2023-01-11T16:56:50.908Z,6.40
2023-01-11T16:59:30.605Z,6.40
2023-01-11T17:01:59.169Z,6.40
2023-01-11T17:04:26.106Z,6.30
2023-01-11T17:06:53.074Z,6.30
2023-01-11T17:09:21.476Z,6.40
2023-01-11T17:11:50.484Z,6.30
2023-01-11T17:14:23.717Z,6.30
2023-01-11T17:16:52.175Z,6.30
2023-01-11T17:19:20.396Z,6.30
2023-01-11T17:21:54.327Z,6.40
2023-01-11T17:24:25.152Z,6.40
2023-01-11T17:26:53.931Z,6.40
2023-01-11T17:29:24.972Z,6.30
2023-01-11T17:31:51.980Z,6.30
2023-01-11T17:34:20.642Z,6.30
2023-01-11T17:36:48.065Z,6.20
2023-01-11T17:39:34.583Z,6.20
2023-01-11T17:42:21.863Z,6.20
2023-01-11T17:45:08.078Z,6.10
2023-01-11T17:47:37.666Z,6.10
2023-01-11T17:50:05.150Z,6.00
2023-01-11T17:52:53.791Z,6.00
2023-01-11T17:55:23.289Z,6.00
2023-01-11T17:58:10.713Z,6.00
2023-01-11T18:00:37.783Z,6.00
2023-01-11T18:03:14.613Z,6.00
2023-01-11T18:05:42.771Z,6.00
2023-01-11T18:08:20.212Z,5.90
2023-01-11T18:10:55.109Z,5.90
2023-01-11T18:13:31.548Z,5.90
2023-01-11T18:15:58.561Z,5.80
2023-01-11T18:18:41.532Z,5.80
2023-01-11T18:21:28.737Z,5.80
2023-01-11T18:24:11.659Z,5.70
2023-01-11T18:26:40.732Z,5.70
2023-01-11T18:29:26.735Z,5.70
2023-01-11T18:31:53.710Z,5.70
2023-01-11T18:34:20.730Z,5.70
2023-01-11T18:36:47.707Z,5.80
2023-01-11T18:39:14.679Z,5.80
2023-01-11T18:42:00.895Z,5.80
2023-01-11T18:44:28.704Z,5.80
2023-01-11T18:46:55.675Z,5.80
2023-01-11T18:49:22.636Z,5.80
2023-01-11T18:51:49.604Z,5.90
2023-01-11T18:54:19.224Z,5.80
2023-01-11T18:56:46.160Z,5.80
2023-01-11T18:59:13.061Z,5.70
2023-01-11T19:01:54.383Z,5.70
2023-01-11T19:04:25.659Z,5.80
2023-01-11T19:06:52.596Z,5.80
2023-01-11T19:09:19.692Z,5.80
2023-01-11T19:11:46.711Z,5.80
2023-01-11T19:14:13.671Z,5.80
2023-01-11T19:16:40.596Z,5.80
2023-01-11T19:19:07.625Z,5.80
2023-01-11T19:21:34.621Z,5.80
2023-01-11T19:24:01.876Z,5.70
2023-01-11T19:26:29.006Z,5.60
2023-01-11T19:28:55.964Z,5.50
2023-01-11T19:31:23.097Z,5.40
2023-01-11T19:33:50.255Z,5.40
2023-01-11T19:36:17.189Z,5.40
2023-01-11T19:38:44.461Z,5.40
2023-01-11T19:41:12.279Z,5.40
2023-01-11T19:43:44.999Z,5.40
2023-01-11T19:46:13.598Z,5.40
2023-01-11T19:48:40.698Z,5.30
2023-01-11T19:51:09.095Z,5.30
2023-01-11T19:53:37.337Z,5.20
2023-01-11T19:56:05.832Z,5.10
2023-01-11T19:58:36.899Z,5.10
2023-01-11T20:01:13.496Z,5.10
2023-01-11T20:03:45.121Z,5.00
2023-01-11T20:06:12.047Z,5.00
2023-01-11T20:08:40.729Z,5.00
2023-01-11T20:11:11.881Z,5.10
2023-01-11T20:13:40.658Z,5.10
2023-01-11T20:16:10.014Z,5.10
2023-01-11T20:18:37.284Z,5.10
2023-01-11T20:21:04.357Z,5.10
2023-01-11T20:23:31.818Z,5.10
2023-01-11T20:25:59.604Z,5.10
2023-01-11T20:28:27.143Z,5.10
2023-01-11T20:30:54.502Z,5.10
2023-01-11T20:33:21.589Z,5.00
2023-01-11T20:35:48.964Z,5.00
2023-01-11T20:38:17.052Z,4.90
2023-01-11T20:40:45.574Z,4.80
2023-01-11T20:43:12.649Z,4.70
2023-01-11T20:45:39.957Z,4.60
2023-01-11T20:48:07.503Z,4.70
2023-01-11T20:50:35.570Z,4.70
2023-01-11T20:53:03.338Z,4.60
2023-01-11T20:55:30.228Z,4.60
2023-01-11T20:57:58.585Z,4.60
2023-01-11T21:00:29.933Z,4.70
2023-01-11T21:02:56.973Z,4.80
2023-01-11T21:05:24.003Z,5.00
2023-01-11T21:07:54.087Z,5.10
2023-01-11T21:10:21.015Z,5.20
2023-01-11T21:12:50.403Z,5.40
2023-01-11T21:15:17.413Z,5.40
2023-01-11T21:17:44.455Z,5.40
2023-01-11T21:20:11.443Z,5.30
2023-01-11T21:22:38.411Z,5.20
2023-01-11T21:25:05.591Z,5.20
2023-01-11T21:27:32.545Z,5.30
2023-01-11T21:29:59.777Z,5.20
2023-01-11T21:32:26.855Z,5.20
2023-01-11T21:34:53.770Z,5.30
2023-01-11T21:37:24.720Z,5.40
2023-01-11T21:39:51.920Z,5.50
2023-01-11T21:42:20.079Z,5.50
2023-01-11T21:44:47.124Z,5.50
2023-01-11T21:47:14.941Z,5.50
2023-01-11T21:49:41.900Z,5.50
2023-01-11T21:52:09.006Z,5.50
2023-01-11T21:54:35.963Z,5.40
2023-01-11T21:57:03.489Z,5.30
2023-01-11T21:59:33.675Z,5.40
2023-01-11T22:02:00.734Z,5.40
2023-01-11T22:04:27.645Z,5.40
2023-01-11T22:06:55.786Z,5.40
2023-01-11T22:09:28.431Z,5.50
2023-01-11T22:11:55.573Z,5.40
2023-01-11T22:14:22.572Z,5.40
2023-01-11T22:16:49.569Z,5.30
2023-01-11T22:19:16.778Z,5.40
2023-01-11T22:21:43.641Z,5.40
2023-01-11T22:24:11.890Z,5.40
2023-01-11T22:26:39.386Z,5.50
2023-01-11T22:29:13.007Z,5.50
2023-01-11T22:31:41.292Z,5.50
2023-01-11T22:34:08.300Z,5.50
2023-01-11T22:36:35.253Z,5.50
2023-01-11T22:39:02.235Z,5.50
2023-01-11T22:41:29.116Z,5.60
2023-01-11T22:43:56.094Z,5.60
2023-01-11T22:46:24.229Z,5.60
2023-01-11T22:48:51.617Z,5.50
2023-01-11T22:51:20.697Z,5.50
2023-01-11T22:53:48.453Z,5.50
2023-01-11T22:56:18.773Z,5.50
2023-01-11T22:58:46.476Z,5.50
2023-01-11T23:01:17.977Z,5.50
2023-01-11T23:03:47.947Z,5.40
2023-01-11T23:06:20.993Z,5.40
2023-01-11T23:08:48.366Z,5.20
2023-01-11T23:11:35.465Z,5.10
2023-01-11T23:14:04.464Z,5.10
2023-01-11T23:16:32.885Z,5.00
2023-01-11T23:18:59.884Z,5.00
2023-01-11T23:21:26.897Z,5.00
2023-01-11T23:23:54.002Z,5.00
2023-01-11T23:26:21.504Z,5.10
2023-01-11T23:28:49.436Z,5.00
2023-01-11T23:31:20.974Z,5.00
2023-01-11T23:33:52.304Z,4.90
2023-01-11T23:36:20.715Z,4.80
2023-01-11T23:38:47.958Z,4.90
2023-01-11T23:41:34.432Z,4.90
2023-01-11T23:44:02.309Z,4.90
2023-01-11T23:46:47.808Z,4.80
2023-01-11T23:49:14.880Z,4.80
2023-01-11T23:51:42.718Z,4.70
2023-01-11T23:54:10.044Z,4.50
2023-01-11T23:56:37.360Z,4.40
2023-01-11T23:59:04.512Z,4.30
